Time;durP1;ratioP1;P1;durP2;ratioP2;P2;SDS_P1;SDS_P2;PMS_P1;PMS_P2;Temp;Humidity;BMP_temperature;BMP_pressure;BME280_temperature;BME280_humidity;BME280_pressure;Samples;Min_cycle;Max_cycle;Signal;HPM_P1;HPM_P2
2023/08/13 00:01:43;;;;;;;7.22;2.55;;;18.20;70.90;;;;;;5038061;28;20044;-78
2023/08/13 00:04:08;;;;;;;6.25;2.63;;;18.20;71.00;;;;;;5004953;28;20062;-78
2023/08/13 00:06:34;;;;;;;7.43;2.22;;;18.20;71.00;;;;;;5038164;28;20044;-78
2023/08/13 00:09:00;;;;;;;7.88;2.75;;;18.20;71.00;;;;;;5021436;28;20515;-78
2023/08/13 00:11:25;;;;;;;13.32;3.28;;;18.20;71.00;;;;;;5005346;28;20439;-78
2023/08/13 00:13:51;;;;;;;6.25;2.10;;;18.20;71.10;;;;;;5021180;28;20064;-78
2023/08/13 00:16:17;;;;;;;4.20;1.85;;;18.20;71.10;;;;;;5021150;28;20037;-77
2023/08/13 00:18:43;;;;;;;8.88;2.33;;;18.20;71.00;;;;;;5037400;28;20037;-77
2023/08/13 00:21:08;;;;;;;4.80;1.95;;;18.20;71.00;;;;;;5005116;28;20094;-78
2023/08/13 00:23:34;;;;;;;7.50;2.17;;;18.20;71.00;;;;;;5017462;28;20049;-77
2023/08/13 00:26:00;;;;;;;5.05;2.28;;;18.20;70.90;;;;;;5034377;28;20122;-78
2023/08/13 00:28:25;;;;;;;7.97;2.67;;;18.20;70.90;;;;;;5033950;28;20484;-78
2023/08/13 00:30:53;;;;;;;5.57;2.33;;;18.20;71.00;;;;;;5017849;28;20095;-78
2023/08/13 00:33:18;;;;;;;11.98;2.72;;;18.20;71.10;;;;;;5034315;28;20033;-78
2023/08/13 00:35:44;;;;;;;7.38;2.50;;;18.20;71.10;;;;;;5017627;28;20091;-78
2023/08/13 00:38:10;;;;;;;8.45;2.95;;;18.20;71.10;;;;;;5017551;28;20068;-78
2023/08/13 00:40:35;;;;;;;7.43;2.25;;;18.20;71.20;;;;;;5034068;28;20041;-78
2023/08/13 00:43:02;;;;;;;7.78;2.72;;;18.20;71.20;;;;;;5033925;28;20489;-78
2023/08/13 00:45:30;;;;;;;9.23;2.58;;;18.20;71.30;;;;;;5033835;28;20496;-78
2023/08/13 00:47:56;;;;;;;7.50;2.58;;;18.20;71.50;;;;;;5017169;28;20128;-78
2023/08/13 00:50:22;;;;;;;6.72;2.65;;;18.20;71.40;;;;;;5033611;28;20125;-78
2023/08/13 00:52:48;;;;;;;9.63;2.78;;;18.20;71.50;;;;;;5017496;28;20541;-78
2023/08/13 00:55:14;;;;;;;8.98;2.83;;;18.20;71.60;;;;;;5033543;28;20042;-78
2023/08/13 00:57:40;;;;;;;10.10;2.38;;;18.20;71.70;;;;;;5017168;28;20080;-78
2023/08/13 01:00:06;;;;;;;12.50;3.55;;;18.10;71.60;;;;;;5017484;28;20081;-78
2023/08/13 01:02:32;;;;;;;7.85;2.90;;;18.10;71.80;;;;;;5033633;28;20049;-78
2023/08/13 01:04:59;;;;;;;10.60;3.05;;;18.10;71.90;;;;;;5017116;28;20037;-78
2023/08/13 01:07:49;;;;;;;7.40;2.90;;;18.10;71.90;;;;;;5033405;28;20123;-78
2023/08/13 01:10:14;;;;;;;13.27;3.40;;;18.10;72.00;;;;;;5016634;28;20485;-78
2023/08/13 01:13:02;;;;;;;9.85;3.30;;;18.00;72.30;;;;;;5033367;28;20048;-77
2023/08/13 01:15:36;;;;;;;11.80;2.85;;;18.00;72.30;;;;;;5033211;28;20037;-78
2023/08/13 01:18:02;;;;;;;8.88;2.95;;;18.00;72.60;;;;;;5033127;28;20037;-78
2023/08/13 01:20:39;;;;;;;7.93;2.78;;;17.90;72.80;;;;;;5033145;28;20532;-78
2023/08/13 01:23:04;;;;;;;9.15;2.78;;;18.00;72.90;;;;;;5016806;28;20087;-78
2023/08/13 01:25:32;;;;;;;9.23;2.65;;;17.90;73.10;;;;;;5016575;28;20053;-77
2023/08/13 01:28:04;;;;;;;13.10;3.80;;;17.90;73.20;;;;;;5016036;28;20125;-79
2023/08/13 01:30:52;;;;;;;12.75;3.13;;;17.90;73.50;;;;;;5033229;28;20385;-78
2023/08/13 01:33:26;;;;;;;8.43;3.03;;;17.80;73.50;;;;;;5033323;28;20033;-78
2023/08/13 01:35:58;;;;;;;12.30;3.17;;;17.90;73.80;;;;;;5016360;28;20041;-78
2023/08/13 01:38:25;;;;;;;9.48;2.95;;;17.90;73.90;;;;;;5032885;28;20607;-78
2023/08/13 01:40:51;;;;;;;6.50;2.03;;;17.80;74.00;;;;;;5000013;28;20103;-78
2023/08/13 01:43:17;;;;;;;9.55;3.03;;;17.80;74.00;;;;;;5000256;28;20045;-78
2023/08/13 01:45:43;;;;;;;10.82;2.88;;;17.80;74.50;;;;;;5032586;28;20041;-78
2023/08/13 01:48:09;;;;;;;14.00;3.63;;;17.80;74.20;;;;;;5016129;28;20038;-78
2023/08/13 01:50:38;;;;;;;8.10;2.53;;;17.80;74.30;;;;;;5032688;28;20042;-78
2023/08/13 01:53:04;;;;;;;6.93;2.33;;;17.80;74.30;;;;;;5032504;28;20091;-78
2023/08/13 01:55:30;;;;;;;9.38;3.40;;;17.80;74.40;;;;;;5016091;28;20034;-78
2023/08/13 01:57:56;;;;;;;8.10;2.50;;;17.80;74.50;;;;;;5015961;28;20385;-78
2023/08/13 02:00:22;;;;;;;12.77;3.88;;;17.80;74.50;;;;;;4999629;28;20056;-78
2023/08/13 02:02:47;;;;;;;7.90;2.67;;;17.70;74.50;;;;;;5032443;28;20045;-78
2023/08/13 02:05:13;;;;;;;9.50;3.00;;;17.70;74.50;;;;;;5015969;28;20099;-78
2023/08/13 02:07:39;;;;;;;6.43;2.20;;;17.70;74.60;;;;;;5032315;28;20041;-78
2023/08/13 02:10:05;;;;;;;5.85;2.42;;;17.70;74.60;;;;;;5032256;28;20033;-78
2023/08/13 02:12:30;;;;;;;9.75;3.53;;;17.70;74.60;;;;;;4999859;28;20045;-78
2023/08/13 02:14:56;;;;;;;6.97;2.58;;;17.70;74.70;;;;;;5032212;28;20484;-78
2023/08/13 02:17:22;;;;;;;6.38;2.70;;;17.70;74.70;;;;;;5015765;28;20067;-78
2023/08/13 02:19:47;;;;;;;7.47;2.72;;;17.70;74.60;;;;;;5015751;28;20045;-78
2023/08/13 02:22:13;;;;;;;8.80;2.47;;;17.70;74.60;;;;;;4999503;28;20033;-78
2023/08/13 02:24:39;;;;;;;12.32;3.35;;;17.70;74.70;;;;;;5031820;28;20057;-78
2023/08/13 02:27:05;;;;;;;9.73;3.05;;;17.60;75.10;;;;;;4999346;28;20045;-78
2023/08/13 02:29:30;;;;;;;8.35;2.80;;;17.60;74.70;;;;;;5015847;28;20038;-78
2023/08/13 02:31:56;;;;;;;9.90;3.35;;;17.60;74.80;;;;;;5015532;28;20488;-78
2023/08/13 02:34:25;;;;;;;12.55;3.65;;;17.60;74.90;;;;;;5031928;28;20037;-78
2023/08/13 02:36:51;;;;;;;6.97;2.83;;;17.60;75.00;;;;;;5031719;28;20037;-78
2023/08/13 02:39:18;;;;;;;9.35;2.63;;;17.60;75.00;;;;;;5016412;28;20377;-78
2023/08/13 02:41:43;;;;;;;10.68;2.85;;;17.60;75.00;;;;;;5019348;28;20049;-78
2023/08/13 02:44:09;;;;;;;12.07;3.47;;;17.50;75.10;;;;;;5019169;28;20064;-78
2023/08/13 02:46:35;;;;;;;12.57;4.28;;;17.50;75.20;;;;;;5019355;28;20039;-78
2023/08/13 02:49:00;;;;;;;11.35;3.55;;;17.50;75.40;;;;;;5019012;28;20365;-78
2023/08/13 02:51:26;;;;;;;8.70;2.97;;;17.50;75.50;;;;;;5018997;28;20034;-78
2023/08/13 02:53:52;;;;;;;13.80;3.60;;;17.40;75.70;;;;;;5019327;28;20037;-78
2023/08/13 02:56:21;;;;;;;9.90;3.03;;;17.40;75.90;;;;;;5019832;28;20428;-78
2023/08/13 02:58:46;;;;;;;10.30;4.50;;;17.30;76.00;;;;;;5019237;28;20033;-78
2023/08/13 03:01:13;;;;;;;8.65;3.30;;;17.30;76.20;;;;;;5019119;28;20037;-78
2023/08/13 03:03:38;;;;;;;10.60;3.58;;;17.30;76.30;;;;;;5019386;28;20445;-78
2023/08/13 03:06:04;;;;;;;10.85;3.60;;;17.30;76.50;;;;;;5019091;28;20088;-78
2023/08/13 03:08:30;;;;;;;9.90;4.10;;;17.20;76.60;;;;;;5035444;28;20042;-78
2023/08/13 03:10:56;;;;;;;9.13;2.83;;;17.20;76.70;;;;;;5035581;28;20045;-78
2023/08/13 03:13:21;;;;;;;9.35;3.13;;;17.20;76.90;;;;;;5035590;28;20504;-78
2023/08/13 03:15:47;;;;;;;9.35;2.67;;;17.20;76.90;;;;;;5019151;28;20388;-78
2023/08/13 03:18:13;;;;;;;12.95;3.50;;;17.10;77.30;;;;;;5019214;28;20041;-78
2023/08/13 03:20:39;;;;;;;10.85;3.13;;;17.10;77.00;;;;;;5035340;28;20041;-78
2023/08/13 03:23:05;;;;;;;10.77;3.50;;;17.10;77.20;;;;;;5035337;28;20053;-78
2023/08/13 03:25:31;;;;;;;12.75;3.35;;;17.10;77.30;;;;;;5035148;28;20481;-78
2023/08/13 03:27:57;;;;;;;12.93;3.70;;;17.10;77.40;;;;;;5002556;28;20038;-78
2023/08/13 03:30:22;;;;;;;8.75;2.90;;;17.10;77.50;;;;;;5002441;28;20498;-78
2023/08/13 03:32:48;;;;;;;10.23;3.10;;;17.10;77.60;;;;;;5033189;28;20139;-78
2023/08/13 03:35:14;;;;;;;12.93;3.67;;;17.10;77.70;;;;;;4996905;28;20124;-78
2023/08/13 03:37:39;;;;;;;9.75;2.60;;;17.10;77.80;;;;;;4991967;28;20038;-78
2023/08/13 03:40:06;;;;;;;8.13;2.47;;;17.10;77.90;;;;;;4998970;28;20141;-79
2023/08/13 03:42:32;;;;;;;9.38;3.10;;;17.10;77.90;;;;;;5015222;28;20050;-78
2023/08/13 03:44:59;;;;;;;9.98;3.25;;;17.10;77.90;;;;;;4998920;28;20095;-78
2023/08/13 03:47:25;;;;;;;11.07;3.60;;;17.10;77.90;;;;;;5015165;28;20042;-78
2023/08/13 03:49:50;;;;;;;8.48;2.75;;;17.00;77.90;;;;;;4998985;28;20037;-78
2023/08/13 03:52:16;;;;;;;10.05;2.97;;;17.00;77.90;;;;;;4998337;28;20362;-78
2023/08/13 03:54:42;;;;;;;12.48;3.75;;;17.00;77.90;;;;;;4998705;28;20045;-78
2023/08/13 03:57:08;;;;;;;11.00;3.25;;;17.00;78.00;;;;;;5015195;28;20046;-78
2023/08/13 03:59:33;;;;;;;8.45;2.97;;;17.00;78.00;;;;;;4998625;28;20107;-78
2023/08/13 04:01:59;;;;;;;13.75;3.92;;;17.10;78.10;;;;;;4998598;28;20065;-78
2023/08/13 04:04:25;;;;;;;12.23;3.75;;;17.10;78.30;;;;;;4998524;28;20046;-78
2023/08/13 04:06:52;;;;;;;8.55;3.22;;;17.10;78.50;;;;;;4998432;28;20042;-79
2023/08/13 04:09:17;;;;;;;13.98;3.50;;;17.10;78.60;;;;;;4998548;28;20038;-78
2023/08/13 04:11:43;;;;;;;9.55;3.15;;;17.10;78.60;;;;;;4998719;28;20041;-78
2023/08/13 04:14:09;;;;;;;9.50;3.55;;;17.10;78.60;;;;;;5014901;28;20045;-78
2023/08/13 04:16:35;;;;;;;11.15;3.30;;;17.10;78.60;;;;;;4981986;28;20042;-78
2023/08/13 04:19:01;;;;;;;10.40;3.90;;;17.10;78.60;;;;;;4998107;28;20034;-78
2023/08/13 04:21:26;;;;;;;12.48;3.65;;;17.10;78.50;;;;;;5014391;28;20057;-78
2023/08/13 04:23:55;;;;;;;12.35;3.38;;;17.10;78.60;;;;;;4998120;28;20137;-78
2023/08/13 04:26:22;;;;;;;10.52;3.50;;;17.10;78.60;;;;;;4998036;28;20053;-78
2023/08/13 04:28:47;;;;;;;11.00;3.72;;;17.10;78.60;;;;;;5014457;28;20042;-79
2023/08/13 04:31:13;;;;;;;15.35;5.10;;;17.10;78.60;;;;;;5014546;28;20045;-79
2023/08/13 04:33:39;;;;;;;13.30;3.80;;;17.10;78.60;;;;;;4998323;28;21237;-79
2023/08/13 04:36:05;;;;;;;10.32;3.97;;;17.10;78.60;;;;;;4965963;28;20100;-79
2023/08/13 04:38:30;;;;;;;11.60;3.78;;;17.20;78.60;;;;;;4997895;28;20642;-79
2023/08/13 04:40:56;;;;;;;9.85;3.38;;;17.20;78.60;;;;;;5014138;28;20042;-78
2023/08/13 04:43:21;;;;;;;11.07;3.55;;;17.20;78.60;;;;;;4997660;28;20067;-78
2023/08/13 04:45:47;;;;;;;11.45;3.70;;;17.20;78.70;;;;;;5013880;28;20080;-78
2023/08/13 04:48:17;;;;;;;15.57;3.65;;;17.20;78.60;;;;;;4997815;28;20149;-78
2023/08/13 04:50:43;;;;;;;8.60;3.30;;;17.20;78.70;;;;;;5014010;28;20038;-78
2023/08/13 04:53:08;;;;;;;7.97;3.30;;;17.30;78.70;;;;;;4981616;28;20038;-79
2023/08/13 04:55:34;;;;;;;12.13;3.17;;;17.20;78.60;;;;;;4997696;28;20037;-79
2023/08/13 04:58:00;;;;;;;10.90;3.35;;;17.30;78.70;;;;;;4997361;28;20042;-78
2023/08/13 05:00:26;;;;;;;13.05;3.53;;;17.30;78.60;;;;;;5013715;28;20075;-78
2023/08/13 05:02:51;;;;;;;9.95;2.80;;;17.30;78.70;;;;;;4980498;28;20045;-78
2023/08/13 05:05:17;;;;;;;11.05;3.80;;;17.40;78.80;;;;;;5013582;28;20404;-78
2023/08/13 05:07:43;;;;;;;11.13;3.60;;;17.40;78.70;;;;;;4997242;28;20125;-78
2023/08/13 05:10:09;;;;;;;9.05;3.75;;;17.40;78.80;;;;;;4997614;28;20092;-78
2023/08/13 05:12:35;;;;;;;10.48;3.95;;;17.40;78.80;;;;;;4997221;28;20038;-78
2023/08/13 05:15:00;;;;;;;10.65;3.60;;;17.40;78.80;;;;;;4980900;28;20056;-78
2023/08/13 05:17:26;;;;;;;10.55;4.45;;;17.40;78.80;;;;;;4996949;28;20053;-78
2023/08/13 05:19:52;;;;;;;11.30;3.70;;;17.50;78.80;;;;;;4997184;28;20073;-78
2023/08/13 05:22:18;;;;;;;11.68;3.50;;;17.50;78.80;;;;;;4997054;28;20045;-79
2023/08/13 05:24:43;;;;;;;7.97;3.13;;;17.40;78.70;;;;;;5013179;28;20140;-78
2023/08/13 05:27:09;;;;;;;9.52;3.13;;;17.50;78.70;;;;;;4996934;28;20052;-79
2023/08/13 05:29:35;;;;;;;8.75;3.17;;;17.50;78.70;;;;;;4997003;28;20034;-78
2023/08/13 05:32:00;;;;;;;10.32;3.33;;;17.50;78.60;;;;;;4996877;28;20038;-78
2023/08/13 05:34:26;;;;;;;8.55;3.72;;;17.50;78.50;;;;;;4997181;28;20034;-78
2023/08/13 05:36:52;;;;;;;7.70;3.40;;;17.50;78.40;;;;;;4996670;28;20041;-78
2023/08/13 05:39:18;;;;;;;11.88;4.15;;;17.50;78.40;;;;;;4980851;28;20042;-78
2023/08/13 05:41:44;;;;;;;9.93;3.95;;;17.60;78.40;;;;;;4996826;28;20068;-78
2023/08/13 05:44:09;;;;;;;8.00;3.42;;;17.60;78.40;;;;;;4996659;28;20636;-78
2023/08/13 05:46:35;;;;;;;10.05;3.47;;;17.60;78.30;;;;;;4996462;28;20413;-78
2023/08/13 05:49:00;;;;;;;13.40;4.15;;;17.60;78.40;;;;;;5012821;28;20037;-78
2023/08/13 05:51:26;;;;;;;10.85;3.42;;;17.60;78.40;;;;;;4996547;28;20038;-78
2023/08/13 05:53:52;;;;;;;8.57;3.30;;;17.60;78.50;;;;;;4996536;28;20053;-78
2023/08/13 05:56:18;;;;;;;9.50;3.50;;;17.70;78.70;;;;;;5012614;28;20045;-78
2023/08/13 05:58:43;;;;;;;8.70;3.80;;;17.70;79.10;;;;;;5012635;28;20037;-78
2023/08/13 06:01:10;;;;;;;11.75;3.08;;;17.80;79.30;;;;;;4996405;28;20069;-78
2023/08/13 06:03:36;;;;;;;10.75;3.08;;;18.00;79.30;;;;;;4996428;28;20038;-78
2023/08/13 06:06:02;;;;;;;10.10;3.25;;;18.10;79.00;;;;;;4979873;28;20528;-78
2023/08/13 06:08:28;;;;;;;9.15;3.78;;;18.30;78.80;;;;;;4996026;28;20096;-79
2023/08/13 06:10:53;;;;;;;11.50;3.35;;;18.60;78.50;;;;;;5012377;28;20050;-79
2023/08/13 06:13:19;;;;;;;7.82;2.80;;;18.80;77.80;;;;;;5012392;28;20100;-79
2023/08/13 06:15:48;;;;;;;9.43;2.90;;;19.10;77.00;;;;;;4996282;28;20485;-79
2023/08/13 06:18:14;;;;;;;7.47;3.15;;;19.40;76.10;;;;;;5012505;28;20077;-77
2023/08/13 06:20:39;;;;;;;9.45;3.10;;;19.70;75.30;;;;;;4996267;28;20481;-77
2023/08/13 06:23:05;;;;;;;8.75;2.70;;;20.00;74.80;;;;;;4995799;28;20061;-76
2023/08/13 06:25:31;;;;;;;10.48;3.00;;;20.30;74.10;;;;;;4995942;28;20050;-78
2023/08/13 06:27:56;;;;;;;10.05;2.80;;;20.70;73.00;;;;;;4995882;28;20103;-78
2023/08/13 06:30:24;;;;;;;8.73;2.95;;;21.00;71.70;;;;;;4995850;28;20481;-78
2023/08/13 06:32:49;;;;;;;8.57;2.45;;;21.10;70.60;;;;;;4995712;28;20038;-78
2023/08/13 06:35:15;;;;;;;7.90;2.80;;;21.30;69.90;;;;;;4996136;28;20050;-78
2023/08/13 06:37:41;;;;;;;8.93;3.03;;;21.30;69.20;;;;;;5012193;28;20129;-79
2023/08/13 06:40:07;;;;;;;9.65;2.63;;;21.40;68.40;;;;;;4995908;28;20064;-79
2023/08/13 06:42:33;;;;;;;7.15;2.65;;;21.40;68.20;;;;;;5012214;28;20050;-78
2023/08/13 06:44:58;;;;;;;9.85;3.35;;;21.40;67.90;;;;;;4995783;28;20092;-78
2023/08/13 06:47:24;;;;;;;10.60;3.30;;;21.40;68.30;;;;;;4995833;28;20064;-78
2023/08/13 06:49:50;;;;;;;10.88;3.42;;;21.50;68.60;;;;;;4995715;28;20070;-78
2023/08/13 06:52:16;;;;;;;7.85;3.30;;;21.50;68.20;;;;;;4995478;28;20046;-78
2023/08/13 06:54:41;;;;;;;8.40;2.38;;;21.50;68.00;;;;;;5011812;28;20481;-78
2023/08/13 06:57:08;;;;;;;9.23;3.35;;;21.50;67.80;;;;;;5011749;28;20049;-78
2023/08/13 06:59:34;;;;;;;9.48;3.70;;;21.50;67.50;;;;;;5011744;28;20112;-78
2023/08/13 07:01:59;;;;;;;10.63;2.88;;;21.50;67.70;;;;;;5011704;28;20042;-78
2023/08/13 07:04:25;;;;;;;7.60;2.60;;;21.50;67.80;;;;;;4979264;28;20125;-78
2023/08/13 07:06:51;;;;;;;9.82;2.63;;;21.50;67.70;;;;;;4995567;28;20041;-78
2023/08/13 07:09:17;;;;;;;9.93;3.00;;;21.50;67.50;;;;;;5000894;28;20538;-78
2023/08/13 07:11:43;;;;;;;7.03;2.53;;;21.50;67.80;;;;;;5005720;28;20503;-77
2023/08/13 07:14:08;;;;;;;8.40;2.72;;;21.60;67.70;;;;;;5007200;28;20057;-78
2023/08/13 07:16:35;;;;;;;10.05;2.60;;;21.70;68.30;;;;;;5031286;28;20041;-77
2023/08/13 07:19:00;;;;;;;9.60;2.38;;;21.80;67.70;;;;;;5031652;28;20033;-77
2023/08/13 07:21:26;;;;;;;8.00;2.70;;;22.10;67.50;;;;;;4998617;28;20435;-77
2023/08/13 07:23:52;;;;;;;9.27;2.90;;;22.20;66.40;;;;;;5014841;28;20054;-78
2023/08/13 07:26:18;;;;;;;8.00;2.28;;;22.40;65.90;;;;;;5015361;28;20067;-78
2023/08/13 07:28:44;;;;;;;6.40;2.58;;;22.70;65.80;;;;;;5025266;28;20037;-78
2023/08/13 07:31:10;;;;;;;7.63;2.38;;;22.90;64.90;;;;;;5034432;28;20073;-78
2023/08/13 07:33:35;;;;;;;6.90;2.53;;;23.00;64.10;;;;;;5023400;28;20050;-78
2023/08/13 07:36:05;;;;;;;7.85;2.60;;;23.10;63.60;;;;;;5035132;28;20355;-78
2023/08/13 07:38:30;;;;;;;7.03;2.10;;;23.30;62.70;;;;;;5010693;28;20371;-78
2023/08/13 07:40:57;;;;;;;8.75;2.92;;;23.30;62.10;;;;;;5014975;28;20078;-78
2023/08/13 07:43:24;;;;;;;9.40;2.72;;;23.40;62.10;;;;;;5002503;28;20037;-79
2023/08/13 07:45:50;;;;;;;8.80;2.60;;;23.50;61.50;;;;;;5034376;28;20103;-78
2023/08/13 07:48:17;;;;;;;7.63;2.42;;;23.60;61.70;;;;;;5020108;28;20551;-79
2023/08/13 07:50:42;;;;;;;7.43;2.20;;;23.80;61.60;;;;;;5018347;28;20041;-79
2023/08/13 07:53:09;;;;;;;8.88;2.30;;;23.90;61.60;;;;;;5001748;28;20037;-78
2023/08/13 07:55:34;;;;;;;8.77;2.83;;;24.20;61.40;;;;;;4986069;28;20030;-79
2023/08/13 07:58:00;;;;;;;7.60;2.63;;;24.40;60.80;;;;;;5018352;28;20132;-79
2023/08/13 08:00:26;;;;;;;7.55;2.33;;;24.60;59.70;;;;;;5016916;28;20500;-79
2023/08/13 08:02:53;;;;;;;7.78;2.35;;;24.80;59.20;;;;;;5025499;28;20042;-79
2023/08/13 08:05:20;;;;;;;9.75;2.65;;;25.00;58.70;;;;;;5033302;28;20049;-79
2023/08/13 08:07:45;;;;;;;5.65;1.75;;;25.10;58.50;;;;;;4980877;28;20044;-80
2023/08/13 08:10:11;;;;;;;10.45;2.33;;;25.20;57.90;;;;;;5000589;28;20042;-80
2023/08/13 08:12:37;;;;;;;4.45;1.90;;;25.30;57.50;;;;;;5017752;28;20120;-80
2023/08/13 08:15:07;;;;;;;7.82;2.30;;;25.30;57.10;;;;;;5013996;28;20172;-80
2023/08/13 08:17:35;;;;;;;6.28;1.88;;;25.40;57.50;;;;;;5021619;28;20049;-79
2023/08/13 08:20:01;;;;;;;8.27;2.15;;;25.40;56.80;;;;;;5017758;28;20171;-78
2023/08/13 08:22:26;;;;;;;4.93;1.88;;;25.50;56.90;;;;;;5017505;28;20064;-79
2023/08/13 08:24:54;;;;;;;8.07;2.20;;;25.60;56.60;;;;;;5001074;28;20095;-78
2023/08/13 08:27:20;;;;;;;6.68;2.03;;;25.70;56.10;;;;;;5014615;28;20065;-78
2023/08/13 08:29:45;;;;;;;4.90;1.33;;;25.80;56.30;;;;;;5003310;28;20037;-78
2023/08/13 08:32:11;;;;;;;8.70;2.22;;;25.90;56.40;;;;;;5016745;28;20098;-79
2023/08/13 08:34:36;;;;;;;8.23;1.83;;;26.00;56.50;;;;;;4994959;28;20044;-79
2023/08/13 08:37:04;;;;;;;6.72;1.85;;;26.20;56.40;;;;;;5017526;28;20065;-78
2023/08/13 08:39:30;;;;;;;5.57;1.90;;;26.30;56.00;;;;;;5017344;28;20041;-78
2023/08/13 08:41:57;;;;;;;7.47;2.63;;;26.50;55.10;;;;;;5017101;28;20100;-78
2023/08/13 08:44:24;;;;;;;7.90;2.22;;;26.60;54.00;;;;;;5011851;28;20041;-78
2023/08/13 08:46:51;;;;;;;7.57;1.92;;;26.60;53.80;;;;;;5029299;28;20520;-78
2023/08/13 08:49:19;;;;;;;5.55;1.88;;;26.70;53.60;;;;;;5013869;28;20077;-78
2023/08/13 08:51:46;;;;;;;6.40;2.00;;;26.80;54.10;;;;;;5027359;28;20033;-80
2023/08/13 08:54:11;;;;;;;7.88;2.15;;;26.90;53.50;;;;;;4984157;28;20033;-78
2023/08/13 08:56:37;;;;;;;5.38;1.50;;;27.00;53.70;;;;;;5016737;28;20037;-78
2023/08/13 08:59:04;;;;;;;6.97;1.77;;;27.00;53.40;;;;;;5016407;28;20103;-77
2023/08/13 09:01:30;;;;;;;7.55;1.88;;;27.20;53.50;;;;;;5032445;28;20045;-78
2023/08/13 09:03:56;;;;;;;6.35;1.90;;;27.30;52.80;;;;;;5015276;28;20155;-80
2023/08/13 09:06:22;;;;;;;7.85;2.15;;;27.40;52.80;;;;;;5010404;28;20117;-78
2023/08/13 09:08:48;;;;;;;3.60;1.17;;;27.50;52.00;;;;;;5011496;28;20489;-80
2023/08/13 09:11:14;;;;;;;8.35;2.30;;;27.60;52.00;;;;;;5020050;28;20044;-82
2023/08/13 09:13:50;;;;;;;5.93;2.17;;;27.60;51.60;;;;;;5004814;28;20397;-78
2023/08/13 09:16:16;;;;;;;5.70;1.85;;;27.70;51.80;;;;;;5023618;28;20191;-79
2023/08/13 09:18:42;;;;;;;5.43;1.80;;;27.70;51.50;;;;;;5012638;28;20049;-78
2023/08/13 09:21:09;;;;;;;6.10;1.98;;;27.70;51.10;;;;;;5004653;28;20041;-76
2023/08/13 09:23:38;;;;;;;4.93;1.58;;;27.70;50.80;;;;;;5013077;28;20108;-78
2023/08/13 09:26:04;;;;;;;8.30;2.03;;;27.70;50.50;;;;;;4997121;28;20049;-78
2023/08/13 09:28:29;;;;;;;5.20;1.52;;;27.70;50.30;;;;;;5000943;28;20045;-78
2023/08/13 09:30:57;;;;;;;6.32;1.75;;;27.70;50.00;;;;;;5007083;28;20068;-77
2023/08/13 09:33:23;;;;;;;5.70;2.03;;;27.60;50.30;;;;;;5033097;28;20037;-78
2023/08/13 09:35:48;;;;;;;5.47;1.50;;;27.50;49.70;;;;;;5013573;28;20497;-76
2023/08/13 09:38:14;;;;;;;5.40;1.73;;;27.60;50.60;;;;;;4995539;28;20486;-76
2023/08/13 09:40:41;;;;;;;6.60;1.83;;;27.50;50.80;;;;;;4979926;28;20053;-76
2023/08/13 09:43:09;;;;;;;6.18;1.60;;;27.60;50.80;;;;;;4996588;28;20129;-76
2023/08/13 09:45:35;;;;;;;5.30;1.80;;;27.60;50.50;;;;;;4996449;28;20042;-76
2023/08/13 09:48:05;;;;;;;6.28;1.85;;;27.60;51.10;;;;;;4996540;28;20045;-76
2023/08/13 09:50:36;;;;;;;4.88;1.50;;;27.70;50.30;;;;;;4979932;28;20425;-76
2023/08/13 09:53:05;;;;;;;3.75;1.27;;;27.80;50.60;;;;;;4996243;28;20630;-76
2023/08/13 09:55:34;;;;;;;7.10;1.48;;;27.90;50.10;;;;;;4996536;28;20400;-77
2023/08/13 09:58:02;;;;;;;3.75;1.00;;;28.00;49.80;;;;;;5012842;28;20449;-77
2023/08/13 10:00:28;;;;;;;5.47;1.60;;;28.00;49.70;;;;;;5012520;28;20049;-77
2023/08/13 10:02:54;;;;;;;4.70;1.42;;;28.10;49.40;;;;;;5012465;28;20046;-77
2023/08/13 10:05:20;;;;;;;4.60;1.30;;;28.10;49.50;;;;;;5012608;28;20050;-76
2023/08/13 10:07:46;;;;;;;5.07;1.40;;;28.20;49.20;;;;;;5012248;28;20053;-76
2023/08/13 10:10:12;;;;;;;4.43;1.40;;;28.30;49.40;;;;;;4979797;28;20041;-76
2023/08/13 10:12:38;;;;;;;3.28;1.00;;;28.30;49.10;;;;;;4995996;28;20038;-76
2023/08/13 10:15:05;;;;;;;5.40;1.27;;;28.40;48.80;;;;;;5012109;28;20124;-76
2023/08/13 10:17:32;;;;;;;5.80;1.10;;;28.30;48.40;;;;;;5012032;28;20477;-76
2023/08/13 10:19:59;;;;;;;4.22;1.25;;;28.40;47.80;;;;;;5012356;28;20390;-77
2023/08/13 10:22:39;;;;;;;3.60;1.45;;;28.30;47.70;;;;;;5012028;28;20088;-76
2023/08/13 10:25:07;;;;;;;3.75;1.10;;;28.30;48.40;;;;;;4995686;28;20080;-76
2023/08/13 10:27:37;;;;;;;5.43;1.30;;;28.30;48.50;;;;;;5012274;28;20046;-76
2023/08/13 10:30:08;;;;;;;5.30;1.63;;;28.40;48.30;;;;;;5012223;28;20046;-77
2023/08/13 10:32:55;;;;;;;3.17;1.00;;;28.40;47.70;;;;;;5012022;28;20049;-76
2023/08/13 10:35:22;;;;;;;3.30;1.02;;;28.40;47.70;;;;;;5012051;28;20048;-76
2023/08/13 10:37:53;;;;;;;3.40;1.63;;;28.40;48.00;;;;;;4995595;28;20042;-77
2023/08/13 10:40:19;;;;;;;4.20;1.35;;;28.40;47.90;;;;;;4995856;28;20366;-76
2023/08/13 10:42:47;;;;;;;3.80;1.13;;;28.40;47.60;;;;;;5012179;28;20046;-76
2023/08/13 10:45:21;;;;;;;3.63;1.10;;;28.40;48.10;;;;;;5012066;28;20042;-77
2023/08/13 10:47:50;;;;;;;5.63;1.10;;;28.40;47.60;;;;;;5011785;28;20041;-76
2023/08/13 10:50:26;;;;;;;4.65;1.10;;;28.40;47.40;;;;;;5012271;28;20469;-76
2023/08/13 10:53:03;;;;;;;3.55;1.10;;;28.30;47.90;;;;;;4995454;28;20092;-77
2023/08/13 10:55:31;;;;;;;3.17;1.02;;;28.20;46.60;;;;;;4997068;28;20045;-76
2023/08/13 10:57:57;;;;;;;4.95;1.23;;;28.20;47.40;;;;;;5011870;28;20049;-76
2023/08/13 11:00:25;;;;;;;1.95;0.80;;;28.10;46.90;;;;;;4995543;28;20065;-76
2023/08/13 11:03:15;;;;;;;3.08;0.93;;;28.00;47.00;;;;;;4998887;28;20042;-76
2023/08/13 11:05:42;;;;;;;3.22;1.13;;;28.00;47.80;;;;;;4999303;28;20088;-77
2023/08/13 11:08:08;;;;;;;4.53;1.17;;;27.90;48.20;;;;;;4999152;28;20041;-77
2023/08/13 11:10:35;;;;;;;3.47;1.30;;;27.90;47.50;;;;;;4999355;28;20048;-76
2023/08/13 11:13:05;;;;;;;3.08;1.23;;;27.80;47.60;;;;;;5015823;28;20441;-76
2023/08/13 11:15:30;;;;;;;6.05;1.23;;;27.70;47.90;;;;;;4999248;28;20053;-76
2023/08/13 11:17:56;;;;;;;3.22;1.13;;;27.60;48.10;;;;;;4999259;28;20042;-76
2023/08/13 11:20:23;;;;;;;3.63;0.82;;;27.50;47.60;;;;;;4999130;28;20046;-76
2023/08/13 11:22:49;;;;;;;3.97;1.02;;;27.50;48.70;;;;;;4999551;28;20045;-76
2023/08/13 11:25:15;;;;;;;4.20;1.40;;;27.40;49.30;;;;;;5018384;28;20072;-76
2023/08/13 11:27:41;;;;;;;4.57;1.50;;;27.40;49.70;;;;;;5018448;28;20056;-76
2023/08/13 11:30:10;;;;;;;3.88;1.10;;;27.30;49.60;;;;;;5018529;28;20172;-76
2023/08/13 11:32:39;;;;;;;4.78;1.17;;;27.30;49.80;;;;;;5002411;28;20400;-76
2023/08/13 11:35:06;;;;;;;5.47;1.60;;;27.30;49.80;;;;;;5002233;28;20096;-76
2023/08/13 11:37:33;;;;;;;3.72;1.27;;;27.30;49.40;;;;;;5018327;28;20041;-76
2023/08/13 11:39:59;;;;;;;3.88;1.02;;;27.30;48.50;;;;;;4986195;28;20068;-76
2023/08/13 11:42:24;;;;;;;4.28;1.90;;;27.30;48.70;;;;;;5002022;28;20042;-76
2023/08/13 11:44:50;;;;;;;6.05;1.65;;;27.20;48.90;;;;;;5018185;28;20049;-77
2023/08/13 11:47:26;;;;;;;7.10;1.92;;;27.20;49.10;;;;;;5018073;28;20188;-76
2023/08/13 11:49:54;;;;;;;3.83;1.10;;;27.10;49.20;;;;;;5018182;28;20037;-76
2023/08/13 11:52:21;;;;;;;6.35;1.45;;;27.10;49.00;;;;;;5002140;28;20396;-76
2023/08/13 11:54:47;;;;;;;4.95;1.20;;;27.10;49.30;;;;;;4985740;28;20041;-76
2023/08/13 11:57:15;;;;;;;6.38;1.63;;;27.10;49.50;;;;;;5018135;28;20472;-76
2023/08/13 11:59:41;;;;;;;3.75;1.30;;;27.10;49.80;;;;;;5017937;28;20049;-76
2023/08/13 12:02:07;;;;;;;3.33;1.30;;;27.00;49.60;;;;;;5017938;28;20045;-76
2023/08/13 12:04:33;;;;;;;5.55;2.00;;;27.00;49.30;;;;;;5001795;28;20419;-76
2023/08/13 12:07:02;;;;;;;6.57;1.58;;;27.00;49.50;;;;;;5017744;28;20080;-76
2023/08/13 12:09:27;;;;;;;5.20;1.73;;;27.00;49.90;;;;;;5017712;28;20120;-76
2023/08/13 12:11:54;;;;;;;5.47;1.63;;;27.00;50.00;;;;;;4984760;28;20125;-76
2023/08/13 12:14:19;;;;;;;7.30;1.88;;;27.00;50.10;;;;;;5017866;28;20448;-76
2023/08/13 12:16:45;;;;;;;5.88;1.70;;;27.00;50.00;;;;;;5017676;28;20073;-76
2023/08/13 12:19:11;;;;;;;4.85;1.98;;;27.10;50.40;;;;;;5001315;28;20091;-76
2023/08/13 12:21:37;;;;;;;4.70;1.63;;;27.10;50.30;;;;;;5017833;28;20120;-76
2023/08/13 12:24:04;;;;;;;5.28;1.60;;;27.10;50.80;;;;;;5017311;28;20551;-76
2023/08/13 12:26:31;;;;;;;6.32;2.13;;;27.10;50.70;;;;;;4985170;28;20041;-77
2023/08/13 12:28:57;;;;;;;8.23;1.73;;;27.10;50.30;;;;;;5017375;28;20132;-76
2023/08/13 12:31:25;;;;;;;6.05;1.85;;;27.10;50.40;;;;;;5017413;28;20052;-76
2023/08/13 12:33:54;;;;;;;7.30;2.10;;;27.20;50.10;;;;;;5001046;28;20037;-76
2023/08/13 12:36:20;;;;;;;6.63;2.03;;;27.10;50.40;;;;;;5001114;28;20128;-77
2023/08/13 12:38:46;;;;;;;8.07;2.63;;;27.10;50.40;;;;;;5017522;28;20053;-76
2023/08/13 12:41:12;;;;;;;8.95;2.35;;;27.10;49.80;;;;;;5017149;28;20051;-76
2023/08/13 12:43:38;;;;;;;6.35;2.30;;;27.10;50.00;;;;;;5017244;28;20045;-76